AUR84HG EGJB-EHGG
Flight info
| Callsign | AUR84HG |
|---|---|
| Flight time | 2h 3m |
| Altitude | 19000 |
| Route | GULDA G271 BENIX G27 NEVIL M189 JACKO DCT REDFA L620 TULIP Y12 SPY N873 GRONY |
| Aircraft | AT76/M-SDFGIRY/S |
Departure
| Time | 2026-05-09 03:05 |
|---|---|
| Airport | Guernsey Airport (EGJB) |
Arrival
| Time | 2026-05-09 05:08 |
|---|---|
| Airport | Groningen Airport Eelde (EHGG) |
| Time | Latitude | Longitude | Altitude | Speed | Heading |
|---|---|---|---|---|---|
| 2026-05-09 02:55 | 49.43299 | -2.59416 | 339 ft | 0 kts | 176° |
| 2026-05-09 02:57 | 49.43298 | -2.59416 | 339 ft | 0 kts | 176° |
| 2026-05-09 02:57 | 49.43302 | -2.59416 | 339 ft | 2 kts | 176° |
| 2026-05-09 02:57 | 49.43317 | -2.59418 | 339 ft | 2 kts | 176° |
| 2026-05-09 02:58 | 49.43332 | -2.59419 | 339 ft | 2 kts | 176° |
| 2026-05-09 02:58 | 49.43347 | -2.59421 | 339 ft | 2 kts | 176° |
| 2026-05-09 02:58 | 49.43362 | -2.59422 | 339 ft | 2 kts | 176° |
| 2026-05-09 02:58 | 49.43367 | -2.59422 | 339 ft | 0 kts | 176° |
| 2026-05-09 03:01 | 49.43356 | -2.59443 | 339 ft | 8 kts | 265° |
| 2026-05-09 03:02 | 49.43352 | -2.59583 | 339 ft | 14 kts | 265° |
| 2026-05-09 03:02 | 49.43345 | -2.59760 | 334 ft | 18 kts | 267° |
| 2026-05-09 03:02 | 49.43340 | -2.59975 | 326 ft | 22 kts | 268° |
| 2026-05-09 03:02 | 49.43332 | -2.60227 | 315 ft | 25 kts | 266° |
| 2026-05-09 03:03 | 49.43329 | -2.60506 | 303 ft | 26 kts | 270° |
| 2026-05-09 03:03 | 49.43348 | -2.60786 | 296 ft | 26 kts | 280° |
| 2026-05-09 03:03 | 49.43364 | -2.61046 | 298 ft | 22 kts | 267° |
| 2026-05-09 03:03 | 49.43372 | -2.61264 | 302 ft | 19 kts | 301° |
| 2026-05-09 03:04 | 49.43455 | -2.61359 | 299 ft | 5 kts | 18° |
| 2026-05-09 03:04 | 49.43465 | -2.61306 | 301 ft | 12 kts | 87° |
| 2026-05-09 03:04 | 49.43480 | -2.60767 | 299 ft | 83 kts | 87° |
| 2026-05-09 03:04 | 49.43515 | -2.59658 | 419 ft | 115 kts | 87° |
| 2026-05-09 03:05 | 49.43569 | -2.58431 | 779 ft | 119 kts | 87° |
| 2026-05-09 03:05 | 49.43633 | -2.57144 | 1023 ft | 126 kts | 87° |
| 2026-05-09 03:05 | 49.43700 | -2.55677 | 1076 ft | 150 kts | 87° |
| 2026-05-09 03:05 | 49.43775 | -2.53975 | 1166 ft | 169 kts | 87° |
| 2026-05-09 03:06 | 49.43877 | -2.52080 | 1205 ft | 188 kts | 82° |
| 2026-05-09 03:06 | 49.44425 | -2.50189 | 1224 ft | 207 kts | 53° |
| 2026-05-09 03:06 | 49.44850 | -2.49185 | 1319 ft | 206 kts | 69° |
| 2026-05-09 03:06 | 49.45069 | -2.48342 | 1852 ft | 183 kts | 71° |
| 2026-05-09 03:07 | 49.45399 | -2.46592 | 2448 ft | 167 kts | 81° |
| 2026-05-09 03:07 | 49.45615 | -2.44866 | 2828 ft | 166 kts | 84° |
| 2026-05-09 03:07 | 49.45799 | -2.43102 | 3173 ft | 168 kts | 85° |
| 2026-05-09 03:07 | 49.45973 | -2.41316 | 3516 ft | 170 kts | 86° |
| 2026-05-09 03:08 | 49.46143 | -2.39518 | 3856 ft | 171 kts | 86° |
| 2026-05-09 03:08 | 49.46312 | -2.37705 | 4192 ft | 173 kts | 87° |
| 2026-05-09 03:08 | 49.46483 | -2.35864 | 4526 ft | 175 kts | 87° |
| 2026-05-09 03:08 | 49.46655 | -2.33998 | 4862 ft | 177 kts | 88° |
| 2026-05-09 03:09 | 49.46827 | -2.32116 | 5190 ft | 180 kts | 88° |
| 2026-05-09 03:09 | 49.47004 | -2.30184 | 5519 ft | 182 kts | 89° |
| 2026-05-09 03:09 | 49.47180 | -2.28252 | 5841 ft | 185 kts | 89° |
| 2026-05-09 03:09 | 49.47360 | -2.26274 | 6175 ft | 187 kts | 89° |
| 2026-05-09 03:10 | 49.47537 | -2.24311 | 6496 ft | 189 kts | 89° |
| 2026-05-09 03:10 | 49.47503 | -2.22335 | 6785 ft | 182 kts | 116° |
| 2026-05-09 03:10 | 49.47055 | -2.20528 | 7120 ft | 182 kts | 120° |
| 2026-05-09 03:10 | 49.46552 | -2.18733 | 7432 ft | 184 kts | 121° |
| 2026-05-09 03:11 | 49.46025 | -2.16923 | 7743 ft | 187 kts | 122° |
| 2026-05-09 03:11 | 49.45490 | -2.15109 | 8048 ft | 189 kts | 122° |
| 2026-05-09 03:11 | 49.44938 | -2.13246 | 8354 ft | 192 kts | 122° |
| 2026-05-09 03:11 | 49.44384 | -2.11383 | 8653 ft | 195 kts | 122° |
| 2026-05-09 03:12 | 49.43818 | -2.09475 | 8952 ft | 198 kts | 122° |
| 2026-05-09 03:12 | 49.43243 | -2.07546 | 9248 ft | 201 kts | 122° |
| 2026-05-09 03:12 | 49.42652 | -2.05561 | 9545 ft | 204 kts | 122° |
| 2026-05-09 03:12 | 49.42057 | -2.03566 | 9838 ft | 207 kts | 122° |
| 2026-05-09 03:13 | 49.40846 | -1.99508 | 10415 ft | 214 kts | 122° |
| 2026-05-09 03:13 | 49.40219 | -1.97407 | 10706 ft | 217 kts | 121° |
| 2026-05-09 03:13 | 49.39588 | -1.95297 | 10993 ft | 220 kts | 121° |
| 2026-05-09 03:14 | 49.38960 | -1.93143 | 11274 ft | 225 kts | 113° |
| 2026-05-09 03:14 | 49.39034 | -1.90723 | 11542 ft | 233 kts | 66° |
| 2026-05-09 03:14 | 49.39754 | -1.88535 | 11880 ft | 232 kts | 57° |
| 2026-05-09 03:14 | 49.40557 | -1.86401 | 12196 ft | 233 kts | 55° |
| 2026-05-09 03:15 | 49.41376 | -1.84252 | 12490 ft | 235 kts | 55° |
| 2026-05-09 03:15 | 49.42202 | -1.82080 | 12786 ft | 237 kts | 55° |
| 2026-05-09 03:15 | 49.43034 | -1.79886 | 13083 ft | 239 kts | 55° |
| 2026-05-09 03:15 | 49.43879 | -1.77656 | 13381 ft | 241 kts | 55° |
| 2026-05-09 03:16 | 49.44722 | -1.75428 | 13675 ft | 243 kts | 55° |
| 2026-05-09 03:16 | 49.45571 | -1.73182 | 13967 ft | 245 kts | 55° |
| 2026-05-09 03:16 | 49.46431 | -1.70907 | 14260 ft | 247 kts | 55° |
| 2026-05-09 03:16 | 49.47284 | -1.68646 | 14546 ft | 248 kts | 55° |
| 2026-05-09 03:17 | 49.48153 | -1.66342 | 14834 ft | 250 kts | 55° |
| 2026-05-09 03:17 | 49.49028 | -1.64020 | 15121 ft | 252 kts | 55° |
| 2026-05-09 03:17 | 49.49911 | -1.61674 | 15408 ft | 254 kts | 55° |
| 2026-05-09 03:17 | 49.50804 | -1.59299 | 15695 ft | 256 kts | 54° |
| 2026-05-09 03:18 | 49.51698 | -1.56921 | 15981 ft | 258 kts | 54° |
| 2026-05-09 03:18 | 49.52595 | -1.54531 | 16265 ft | 260 kts | 54° |
| 2026-05-09 03:18 | 49.53500 | -1.52117 | 16550 ft | 262 kts | 54° |
| 2026-05-09 03:18 | 49.54418 | -1.49676 | 16835 ft | 263 kts | 52° |
| 2026-05-09 03:19 | 49.55557 | -1.47506 | 17119 ft | 259 kts | 39° |
| 2026-05-09 03:19 | 49.56791 | -1.45494 | 17405 ft | 261 kts | 38° |
| 2026-05-09 03:19 | 49.58038 | -1.43463 | 17689 ft | 263 kts | 38° |
| 2026-05-09 03:19 | 49.59294 | -1.41408 | 17974 ft | 265 kts | 38° |
| 2026-05-09 03:20 | 49.60549 | -1.39349 | 18257 ft | 267 kts | 38° |
| 2026-05-09 03:20 | 49.61816 | -1.37265 | 18540 ft | 268 kts | 38° |
| 2026-05-09 03:20 | 49.63096 | -1.35158 | 18824 ft | 270 kts | 38° |
| 2026-05-09 03:20 | 49.64394 | -1.33024 | 18992 ft | 277 kts | 39° |
| 2026-05-09 03:21 | 49.65743 | -1.30807 | 19024 ft | 289 kts | 39° |
| 2026-05-09 03:21 | 49.67144 | -1.28496 | 19028 ft | 301 kts | 40° |
| 2026-05-09 03:21 | 49.68594 | -1.26101 | 19028 ft | 311 kts | 40° |
| 2026-05-09 03:21 | 49.70084 | -1.23635 | 19026 ft | 319 kts | 40° |
| 2026-05-09 03:22 | 49.71602 | -1.21120 | 19025 ft | 326 kts | 40° |
| 2026-05-09 03:22 | 49.73158 | -1.18539 | 19024 ft | 332 kts | 40° |
| 2026-05-09 03:22 | 49.74756 | -1.15887 | 19023 ft | 337 kts | 40° |
| 2026-05-09 03:22 | 49.76354 | -1.13233 | 19022 ft | 340 kts | 40° |
| 2026-05-09 03:23 | 49.77964 | -1.10555 | 19022 ft | 343 kts | 41° |
| 2026-05-09 03:23 | 49.79377 | -1.07556 | 18990 ft | 355 kts | 63° |
| 2026-05-09 03:23 | 49.80265 | -1.03993 | 19017 ft | 357 kts | 68° |
| 2026-05-09 03:23 | 49.81082 | -1.00321 | 19022 ft | 359 kts | 69° |
| 2026-05-09 03:24 | 49.81877 | -0.96665 | 19022 ft | 360 kts | 69° |
| 2026-05-09 03:24 | 49.82676 | -0.92978 | 19022 ft | 361 kts | 69° |
| 2026-05-09 03:24 | 49.83474 | -0.89290 | 19022 ft | 362 kts | 69° |
| 2026-05-09 03:24 | 49.84271 | -0.85601 | 19024 ft | 363 kts | 70° |
| 2026-05-09 03:25 | 49.85068 | -0.81918 | 19044 ft | 361 kts | 70° |
| 2026-05-09 03:25 | 49.85857 | -0.78242 | 19048 ft | 361 kts | 70° |
| 2026-05-09 03:25 | 49.86644 | -0.74569 | 19049 ft | 361 kts | 70° |
| 2026-05-09 03:25 | 49.87441 | -0.70849 | 19050 ft | 361 kts | 70° |
| 2026-05-09 03:26 | 49.88227 | -0.67172 | 19050 ft | 360 kts | 70° |
| 2026-05-09 03:26 | 49.89011 | -0.63503 | 19051 ft | 360 kts | 70° |
| 2026-05-09 03:26 | 49.89794 | -0.59831 | 19051 ft | 360 kts | 70° |
| 2026-05-09 03:26 | 49.90585 | -0.56113 | 19052 ft | 360 kts | 70° |
| 2026-05-09 03:27 | 49.91367 | -0.52433 | 19052 ft | 360 kts | 70° |
| 2026-05-09 03:27 | 49.92150 | -0.48741 | 19052 ft | 360 kts | 70° |
| 2026-05-09 03:27 | 49.93343 | -0.45421 | 19046 ft | 351 kts | 42° |
| 2026-05-09 03:27 | 49.95109 | -0.42884 | 19057 ft | 347 kts | 33° |
| 2026-05-09 03:28 | 49.96975 | -0.40531 | 19055 ft | 346 kts | 31° |
| 2026-05-09 03:28 | 49.98860 | -0.38221 | 19054 ft | 346 kts | 31° |
| 2026-05-09 03:28 | 50.00750 | -0.35921 | 19054 ft | 346 kts | 31° |
| 2026-05-09 03:28 | 50.02649 | -0.33614 | 19046 ft | 346 kts | 32° |
| 2026-05-09 03:29 | 50.04551 | -0.31301 | 19045 ft | 346 kts | 32° |
| 2026-05-09 03:29 | 50.06435 | -0.29008 | 19046 ft | 346 kts | 32° |
| 2026-05-09 03:29 | 50.08318 | -0.26714 | 19046 ft | 346 kts | 32° |
| 2026-05-09 03:29 | 50.10211 | -0.24406 | 19046 ft | 346 kts | 32° |
| 2026-05-09 03:30 | 50.12153 | -0.22036 | 19044 ft | 346 kts | 32° |
| 2026-05-09 03:30 | 50.14084 | -0.19676 | 19044 ft | 345 kts | 32° |
| 2026-05-09 03:30 | 50.16043 | -0.17280 | 19044 ft | 345 kts | 32° |
| 2026-05-09 03:30 | 50.17998 | -0.14886 | 19044 ft | 345 kts | 32° |
| 2026-05-09 03:31 | 50.19944 | -0.12500 | 19045 ft | 345 kts | 32° |
| 2026-05-09 03:31 | 50.21836 | -0.10180 | 19045 ft | 345 kts | 32° |
| 2026-05-09 03:31 | 50.23718 | -0.07868 | 19045 ft | 345 kts | 32° |
| 2026-05-09 03:31 | 50.25599 | -0.05554 | 19045 ft | 345 kts | 32° |
| 2026-05-09 03:32 | 50.27484 | -0.03235 | 19046 ft | 345 kts | 32° |
| 2026-05-09 03:32 | 50.29367 | -0.00914 | 19046 ft | 345 kts | 32° |
| 2026-05-09 03:32 | 50.31246 | 0.01403 | 19046 ft | 345 kts | 32° |
| 2026-05-09 03:32 | 50.33125 | 0.03723 | 19047 ft | 345 kts | 32° |
| 2026-05-09 03:33 | 50.35005 | 0.06046 | 19047 ft | 345 kts | 32° |
| 2026-05-09 03:33 | 50.36883 | 0.08370 | 19047 ft | 345 kts | 32° |
| 2026-05-09 03:33 | 50.38761 | 0.10697 | 19047 ft | 345 kts | 32° |
| 2026-05-09 03:33 | 50.40638 | 0.13023 | 19048 ft | 345 kts | 32° |
| 2026-05-09 03:34 | 50.42511 | 0.15348 | 19048 ft | 346 kts | 32° |
| 2026-05-09 03:34 | 50.44390 | 0.17683 | 19048 ft | 346 kts | 32° |
| 2026-05-09 03:34 | 50.46263 | 0.20013 | 19048 ft | 346 kts | 32° |
| 2026-05-09 03:34 | 50.48149 | 0.22361 | 19049 ft | 346 kts | 32° |
| 2026-05-09 03:35 | 50.50032 | 0.24707 | 19049 ft | 346 kts | 32° |
| 2026-05-09 03:35 | 50.51916 | 0.27058 | 19049 ft | 346 kts | 32° |
| 2026-05-09 03:35 | 50.53787 | 0.29395 | 19049 ft | 346 kts | 32° |
| 2026-05-09 03:35 | 50.55674 | 0.31754 | 19050 ft | 346 kts | 32° |
| 2026-05-09 03:36 | 50.57560 | 0.34114 | 19050 ft | 346 kts | 32° |
| 2026-05-09 03:36 | 50.59441 | 0.36472 | 19050 ft | 346 kts | 32° |
| 2026-05-09 03:36 | 50.61308 | 0.38813 | 19050 ft | 346 kts | 32° |
| 2026-05-09 03:36 | 50.63200 | 0.41189 | 19051 ft | 346 kts | 32° |
| 2026-05-09 03:37 | 50.65064 | 0.43530 | 19051 ft | 346 kts | 32° |
| 2026-05-09 03:37 | 50.66940 | 0.45891 | 19051 ft | 346 kts | 32° |
| 2026-05-09 03:37 | 50.68832 | 0.48274 | 19051 ft | 346 kts | 32° |
| 2026-05-09 03:37 | 50.70693 | 0.50621 | 19052 ft | 346 kts | 32° |
| 2026-05-09 03:38 | 50.72578 | 0.53000 | 19052 ft | 347 kts | 32° |
| 2026-05-09 03:38 | 50.74462 | 0.55380 | 19052 ft | 347 kts | 32° |
| 2026-05-09 03:38 | 50.76329 | 0.57741 | 19052 ft | 347 kts | 32° |
| 2026-05-09 03:38 | 50.78214 | 0.60129 | 19053 ft | 347 kts | 32° |
| 2026-05-09 03:39 | 50.80075 | 0.62488 | 19053 ft | 347 kts | 32° |
| 2026-05-09 03:39 | 50.81967 | 0.64889 | 19053 ft | 347 kts | 32° |
| 2026-05-09 03:39 | 50.83843 | 0.67271 | 19046 ft | 347 kts | 33° |
| 2026-05-09 03:39 | 50.85712 | 0.69647 | 19045 ft | 347 kts | 33° |
| 2026-05-09 03:40 | 50.87600 | 0.72051 | 19114 ft | 344 kts | 33° |
| 2026-05-09 03:40 | 50.89452 | 0.74413 | 19124 ft | 344 kts | 32° |
| 2026-05-09 03:40 | 50.91321 | 0.76796 | 19127 ft | 345 kts | 32° |
| 2026-05-09 03:40 | 50.93167 | 0.79153 | 19127 ft | 345 kts | 32° |
| 2026-05-09 03:41 | 50.95046 | 0.81555 | 19128 ft | 345 kts | 33° |
| 2026-05-09 03:41 | 50.96897 | 0.83924 | 19128 ft | 346 kts | 33° |
| 2026-05-09 03:41 | 50.98783 | 0.86340 | 19128 ft | 346 kts | 33° |
| 2026-05-09 03:41 | 51.00358 | 0.89264 | 19142 ft | 355 kts | 55° |
| 2026-05-09 03:42 | 51.01598 | 0.92661 | 19136 ft | 356 kts | 58° |
| 2026-05-09 03:42 | 51.02786 | 0.96105 | 19131 ft | 357 kts | 58° |
| 2026-05-09 03:42 | 51.03971 | 0.99575 | 19130 ft | 357 kts | 58° |
| 2026-05-09 03:42 | 51.05137 | 1.02999 | 19130 ft | 357 kts | 58° |
| 2026-05-09 03:43 | 51.06324 | 1.06489 | 19130 ft | 358 kts | 58° |
| 2026-05-09 03:43 | 51.07503 | 1.09961 | 19130 ft | 358 kts | 58° |
| 2026-05-09 03:43 | 51.08684 | 1.13441 | 19131 ft | 358 kts | 58° |
| 2026-05-09 03:43 | 51.09862 | 1.16920 | 19131 ft | 358 kts | 58° |
| 2026-05-09 03:44 | 51.11042 | 1.20408 | 19129 ft | 358 kts | 58° |
| 2026-05-09 03:44 | 51.12219 | 1.23892 | 19129 ft | 358 kts | 58° |
| 2026-05-09 03:44 | 51.13395 | 1.27380 | 19129 ft | 358 kts | 58° |
| 2026-05-09 03:44 | 51.14573 | 1.30877 | 19129 ft | 358 kts | 58° |
| 2026-05-09 03:45 | 51.16063 | 1.33873 | 19115 ft | 345 kts | 31° |
| 2026-05-09 03:45 | 51.18158 | 1.35458 | 19141 ft | 327 kts | 7° |
| 2026-05-09 03:45 | 51.20361 | 1.36150 | 19137 ft | 321 kts | 358° |
| 2026-05-09 03:45 | 51.22558 | 1.36553 | 19132 ft | 319 kts | 355° |
| 2026-05-09 03:46 | 51.24764 | 1.36864 | 19131 ft | 318 kts | 355° |
| 2026-05-09 03:46 | 51.26966 | 1.37141 | 19131 ft | 318 kts | 354° |
| 2026-05-09 03:46 | 51.29176 | 1.37407 | 19131 ft | 318 kts | 354° |
| 2026-05-09 03:46 | 51.31376 | 1.37668 | 19131 ft | 318 kts | 354° |
| 2026-05-09 03:47 | 51.33566 | 1.37926 | 19131 ft | 318 kts | 354° |
| 2026-05-09 03:47 | 51.35758 | 1.38184 | 19131 ft | 318 kts | 354° |
| 2026-05-09 03:47 | 51.37975 | 1.38444 | 19131 ft | 318 kts | 354° |
| 2026-05-09 03:47 | 51.40173 | 1.38703 | 19131 ft | 318 kts | 354° |
| 2026-05-09 03:48 | 51.42362 | 1.38960 | 19131 ft | 318 kts | 354° |
| 2026-05-09 03:48 | 51.44582 | 1.39222 | 19131 ft | 318 kts | 354° |
| 2026-05-09 03:48 | 51.46765 | 1.39480 | 19131 ft | 318 kts | 354° |
| 2026-05-09 03:48 | 51.48994 | 1.39743 | 19131 ft | 318 kts | 354° |
| 2026-05-09 03:49 | 51.51179 | 1.40001 | 19131 ft | 318 kts | 354° |
| 2026-05-09 03:49 | 51.53397 | 1.40263 | 19131 ft | 318 kts | 354° |
| 2026-05-09 03:49 | 51.55599 | 1.40524 | 19131 ft | 318 kts | 354° |
| 2026-05-09 03:49 | 51.57784 | 1.40783 | 19131 ft | 318 kts | 354° |
| 2026-05-09 03:50 | 51.59993 | 1.41045 | 19132 ft | 319 kts | 354° |
| 2026-05-09 03:50 | 51.62199 | 1.41307 | 19132 ft | 319 kts | 354° |
| 2026-05-09 03:50 | 51.64408 | 1.41570 | 19132 ft | 319 kts | 354° |
| 2026-05-09 03:50 | 51.66610 | 1.41832 | 19132 ft | 319 kts | 354° |
| 2026-05-09 03:51 | 51.68818 | 1.42095 | 19132 ft | 319 kts | 354° |
| 2026-05-09 03:51 | 51.71021 | 1.42359 | 19132 ft | 319 kts | 354° |
| 2026-05-09 03:51 | 51.73181 | 1.43517 | 19123 ft | 342 kts | 25° |
| 2026-05-09 03:51 | 51.74869 | 1.46297 | 19127 ft | 356 kts | 52° |
| 2026-05-09 03:52 | 51.76149 | 1.49693 | 19133 ft | 357 kts | 56° |
| 2026-05-09 03:52 | 51.77394 | 1.53137 | 19134 ft | 357 kts | 56° |
| 2026-05-09 03:52 | 51.78642 | 1.56592 | 19134 ft | 357 kts | 56° |
| 2026-05-09 03:52 | 51.79891 | 1.60044 | 19134 ft | 358 kts | 56° |
| 2026-05-09 03:53 | 51.81147 | 1.63516 | 19134 ft | 358 kts | 56° |
| 2026-05-09 03:53 | 51.82423 | 1.67047 | 19127 ft | 358 kts | 57° |
| 2026-05-09 03:53 | 51.83739 | 1.70694 | 19126 ft | 358 kts | 57° |
| 2026-05-09 03:53 | 51.85000 | 1.74195 | 19126 ft | 358 kts | 57° |
| 2026-05-09 03:54 | 51.86248 | 1.77663 | 19127 ft | 357 kts | 57° |
| 2026-05-09 03:54 | 51.87491 | 1.81125 | 19127 ft | 357 kts | 57° |
| 2026-05-09 03:54 | 51.88735 | 1.84590 | 19127 ft | 357 kts | 57° |
| 2026-05-09 03:54 | 51.89977 | 1.88056 | 19128 ft | 357 kts | 57° |
| 2026-05-09 03:55 | 51.91227 | 1.91516 | 19124 ft | 358 kts | 58° |
| 2026-05-09 03:55 | 51.92479 | 1.95034 | 19128 ft | 358 kts | 58° |
| 2026-05-09 03:55 | 51.93717 | 1.98516 | 19128 ft | 359 kts | 58° |
| 2026-05-09 03:55 | 51.94958 | 2.02002 | 19129 ft | 359 kts | 58° |
| 2026-05-09 03:56 | 51.96201 | 2.05498 | 19129 ft | 360 kts | 58° |
| 2026-05-09 03:56 | 51.97458 | 2.09034 | 19129 ft | 360 kts | 58° |
| 2026-05-09 03:56 | 51.98696 | 2.12523 | 19130 ft | 360 kts | 58° |
| 2026-05-09 03:56 | 51.99956 | 2.16080 | 19130 ft | 361 kts | 58° |
| 2026-05-09 03:57 | 52.01199 | 2.19591 | 19130 ft | 361 kts | 58° |
| 2026-05-09 03:57 | 52.02442 | 2.23109 | 19131 ft | 361 kts | 58° |
| 2026-05-09 03:57 | 52.03682 | 2.26623 | 19131 ft | 361 kts | 58° |
| 2026-05-09 03:57 | 52.04939 | 2.30189 | 19131 ft | 361 kts | 58° |
| 2026-05-09 03:58 | 52.06179 | 2.33713 | 19132 ft | 361 kts | 58° |
| 2026-05-09 03:58 | 52.07416 | 2.37235 | 19132 ft | 361 kts | 58° |
| 2026-05-09 03:58 | 52.08670 | 2.40808 | 19133 ft | 362 kts | 58° |
| 2026-05-09 03:58 | 52.09906 | 2.44336 | 19133 ft | 362 kts | 58° |
| 2026-05-09 03:59 | 52.11159 | 2.47952 | 19124 ft | 362 kts | 61° |
| 2026-05-09 03:59 | 52.12002 | 2.51774 | 19137 ft | 362 kts | 70° |
| 2026-05-09 03:59 | 52.12779 | 2.55698 | 19129 ft | 362 kts | 72° |
| 2026-05-09 03:59 | 52.13526 | 2.59585 | 19129 ft | 362 kts | 72° |
| 2026-05-09 04:00 | 52.14265 | 2.63457 | 19129 ft | 362 kts | 72° |
| 2026-05-09 04:00 | 52.15035 | 2.67501 | 19122 ft | 362 kts | 73° |
| 2026-05-09 04:00 | 52.15776 | 2.71413 | 19122 ft | 361 kts | 73° |
| 2026-05-09 04:00 | 52.16512 | 2.75307 | 19122 ft | 361 kts | 73° |
| 2026-05-09 04:01 | 52.17253 | 2.79234 | 19122 ft | 361 kts | 73° |
| 2026-05-09 04:01 | 52.17985 | 2.83119 | 19123 ft | 361 kts | 73° |
| 2026-05-09 04:01 | 52.18724 | 2.87055 | 19123 ft | 361 kts | 73° |
| 2026-05-09 04:01 | 52.19455 | 2.90946 | 19123 ft | 361 kts | 73° |
| 2026-05-09 04:02 | 52.20181 | 2.94825 | 19124 ft | 361 kts | 73° |
| 2026-05-09 04:02 | 52.20907 | 2.98715 | 19124 ft | 361 kts | 73° |
| 2026-05-09 04:02 | 52.21639 | 3.02639 | 19125 ft | 361 kts | 73° |
| 2026-05-09 04:02 | 52.22363 | 3.06534 | 19125 ft | 361 kts | 73° |
| 2026-05-09 04:03 | 52.23087 | 3.10433 | 19125 ft | 361 kts | 73° |
| 2026-05-09 04:03 | 52.23819 | 3.14384 | 19126 ft | 361 kts | 73° |
| 2026-05-09 04:03 | 52.24540 | 3.18286 | 19126 ft | 361 kts | 73° |
| 2026-05-09 04:03 | 52.25261 | 3.22192 | 19126 ft | 361 kts | 73° |
| 2026-05-09 04:04 | 52.25980 | 3.26098 | 19127 ft | 361 kts | 73° |
| 2026-05-09 04:04 | 52.26699 | 3.30014 | 19127 ft | 361 kts | 73° |
| 2026-05-09 04:04 | 52.27425 | 3.33972 | 19128 ft | 361 kts | 73° |
| 2026-05-09 04:04 | 52.28141 | 3.37880 | 19128 ft | 361 kts | 73° |
| 2026-05-09 04:05 | 52.28854 | 3.41783 | 19128 ft | 361 kts | 73° |
| 2026-05-09 04:05 | 52.29577 | 3.45748 | 19129 ft | 362 kts | 73° |
| 2026-05-09 04:05 | 52.30288 | 3.49661 | 19129 ft | 362 kts | 73° |
| 2026-05-09 04:05 | 52.31001 | 3.53588 | 19129 ft | 362 kts | 73° |
| 2026-05-09 04:06 | 52.31714 | 3.57522 | 19130 ft | 362 kts | 73° |
| 2026-05-09 04:06 | 52.32421 | 3.61437 | 19130 ft | 362 kts | 73° |
| 2026-05-09 04:06 | 52.33141 | 3.65428 | 19130 ft | 362 kts | 75° |
| 2026-05-09 04:06 | 52.33855 | 3.69394 | 19124 ft | 362 kts | 75° |
| 2026-05-09 04:07 | 52.34554 | 3.73289 | 19123 ft | 361 kts | 75° |
| 2026-05-09 04:07 | 52.35265 | 3.77261 | 19123 ft | 361 kts | 75° |
| 2026-05-09 04:07 | 52.35962 | 3.81160 | 19123 ft | 361 kts | 75° |
| 2026-05-09 04:07 | 52.36672 | 3.85139 | 19124 ft | 361 kts | 75° |
| 2026-05-09 04:08 | 52.37372 | 3.89076 | 19124 ft | 361 kts | 75° |
| 2026-05-09 04:08 | 52.38064 | 3.92974 | 19125 ft | 361 kts | 75° |
| 2026-05-09 04:08 | 52.38765 | 3.96928 | 19125 ft | 361 kts | 75° |
| 2026-05-09 04:08 | 52.39456 | 4.00839 | 19125 ft | 361 kts | 75° |
| 2026-05-09 04:09 | 52.40159 | 4.04827 | 19126 ft | 361 kts | 75° |
| 2026-05-09 04:09 | 52.40853 | 4.08768 | 19126 ft | 361 kts | 75° |
| 2026-05-09 04:09 | 52.41537 | 4.12666 | 19127 ft | 361 kts | 75° |
| 2026-05-09 04:09 | 52.42231 | 4.16628 | 19127 ft | 361 kts | 75° |
| 2026-05-09 04:10 | 52.42927 | 4.20617 | 19128 ft | 361 kts | 73° |
| 2026-05-09 04:10 | 52.43605 | 4.24539 | 19137 ft | 361 kts | 73° |
| 2026-05-09 04:10 | 52.44303 | 4.28521 | 19139 ft | 361 kts | 73° |
| 2026-05-09 04:10 | 52.44985 | 4.32440 | 19139 ft | 362 kts | 73° |
| 2026-05-09 04:11 | 52.45675 | 4.36419 | 19140 ft | 362 kts | 73° |
| 2026-05-09 04:11 | 52.46356 | 4.40359 | 19140 ft | 362 kts | 73° |
| 2026-05-09 04:11 | 52.47045 | 4.44350 | 19140 ft | 362 kts | 73° |
| 2026-05-09 04:11 | 52.47722 | 4.48282 | 19141 ft | 362 kts | 73° |
| 2026-05-09 04:12 | 52.48403 | 4.52254 | 19141 ft | 362 kts | 73° |
| 2026-05-09 04:12 | 52.49089 | 4.56259 | 19142 ft | 362 kts | 73° |
| 2026-05-09 04:12 | 52.49773 | 4.60260 | 19142 ft | 363 kts | 73° |
| 2026-05-09 04:12 | 52.50450 | 4.64228 | 19142 ft | 363 kts | 73° |
| 2026-05-09 04:13 | 52.51138 | 4.68265 | 19135 ft | 363 kts | 74° |
| 2026-05-09 04:13 | 52.51839 | 4.72400 | 19134 ft | 362 kts | 74° |
| 2026-05-09 04:13 | 52.52507 | 4.76347 | 19135 ft | 362 kts | 74° |
| 2026-05-09 04:13 | 52.53183 | 4.80346 | 19135 ft | 362 kts | 74° |
| 2026-05-09 04:14 | 52.53888 | 4.84279 | 19117 ft | 362 kts | 67° |
| 2026-05-09 04:14 | 52.55220 | 4.87735 | 19146 ft | 356 kts | 50° |
| 2026-05-09 04:14 | 52.56718 | 4.90944 | 19136 ft | 356 kts | 47° |
| 2026-05-09 04:14 | 52.58234 | 4.94114 | 19136 ft | 356 kts | 47° |
| 2026-05-09 04:15 | 52.59774 | 4.97326 | 19137 ft | 356 kts | 47° |
| 2026-05-09 04:15 | 52.61296 | 5.00501 | 19137 ft | 356 kts | 47° |
| 2026-05-09 04:15 | 52.62837 | 5.03721 | 19137 ft | 356 kts | 47° |
| 2026-05-09 04:15 | 52.64357 | 5.06901 | 19138 ft | 356 kts | 47° |
| 2026-05-09 04:16 | 52.65875 | 5.10081 | 19138 ft | 356 kts | 47° |
| 2026-05-09 04:16 | 52.67417 | 5.13315 | 19138 ft | 356 kts | 47° |
| 2026-05-09 04:16 | 52.68932 | 5.16498 | 19139 ft | 356 kts | 47° |
| 2026-05-09 04:16 | 52.70467 | 5.19723 | 19139 ft | 356 kts | 47° |
| 2026-05-09 04:17 | 52.71979 | 5.22907 | 19139 ft | 356 kts | 47° |
| 2026-05-09 04:17 | 52.73502 | 5.26115 | 19140 ft | 356 kts | 47° |
| 2026-05-09 04:17 | 52.75045 | 5.29366 | 19140 ft | 356 kts | 47° |
| 2026-05-09 04:17 | 52.76558 | 5.32559 | 19140 ft | 356 kts | 47° |
| 2026-05-09 04:18 | 52.78079 | 5.35770 | 19141 ft | 357 kts | 47° |
| 2026-05-09 04:18 | 52.79614 | 5.39023 | 19141 ft | 357 kts | 47° |
| 2026-05-09 04:18 | 52.81135 | 5.42251 | 19141 ft | 357 kts | 47° |
| 2026-05-09 04:18 | 52.82641 | 5.45451 | 19142 ft | 357 kts | 47° |
| 2026-05-09 04:19 | 52.84171 | 5.48705 | 19142 ft | 357 kts | 47° |
| 2026-05-09 04:19 | 52.85676 | 5.51911 | 19142 ft | 357 kts | 47° |
| 2026-05-09 04:19 | 52.87203 | 5.55168 | 19143 ft | 357 kts | 47° |
| 2026-05-09 04:19 | 52.88732 | 5.58434 | 19143 ft | 357 kts | 47° |
| 2026-05-09 04:20 | 52.90247 | 5.61673 | 19143 ft | 357 kts | 47° |
| 2026-05-09 04:20 | 52.91759 | 5.64911 | 19144 ft | 357 kts | 47° |
| 2026-05-09 04:20 | 52.93283 | 5.68178 | 19137 ft | 357 kts | 48° |
| 2026-05-09 04:20 | 52.94795 | 5.71424 | 19136 ft | 357 kts | 48° |
| 2026-05-09 04:21 | 52.96304 | 5.74667 | 19136 ft | 357 kts | 48° |
| 2026-05-09 04:21 | 52.97825 | 5.77941 | 19136 ft | 357 kts | 48° |
| 2026-05-09 04:21 | 53.00846 | 5.84458 | 19137 ft | 356 kts | 48° |
| 2026-05-09 04:22 | 53.02346 | 5.87699 | 19137 ft | 356 kts | 48° |
| 2026-05-09 04:22 | 53.03846 | 5.90946 | 19138 ft | 356 kts | 48° |
| 2026-05-09 04:22 | 53.05335 | 5.94171 | 19138 ft | 356 kts | 48° |
| 2026-05-09 04:22 | 53.06853 | 5.97464 | 19138 ft | 357 kts | 48° |
| 2026-05-09 04:23 | 53.08348 | 6.00710 | 19139 ft | 357 kts | 48° |
| 2026-05-09 04:23 | 53.09856 | 6.03989 | 19139 ft | 357 kts | 48° |
| 2026-05-09 04:23 | 53.11549 | 6.06979 | 19099 ft | 345 kts | 26° |
| 2026-05-09 04:23 | 53.13707 | 6.08252 | 19120 ft | 319 kts | 355° |
| 2026-05-09 04:24 | 53.15747 | 6.07694 | 19125 ft | 290 kts | 325° |
| 2026-05-09 04:24 | 53.17169 | 6.05630 | 19126 ft | 264 kts | 295° |
| 2026-05-09 04:24 | 53.17580 | 6.02777 | 19126 ft | 250 kts | 263° |
| 2026-05-09 04:24 | 53.16896 | 6.00176 | 19139 ft | 253 kts | 236° |
| 2026-05-09 04:25 | 53.16061 | 5.97624 | 19161 ft | 249 kts | 247° |
| 2026-05-09 04:25 | 53.15253 | 5.95090 | 19181 ft | 251 kts | 242° |
| 2026-05-09 04:25 | 53.14394 | 5.92532 | 19181 ft | 253 kts | 242° |
| 2026-05-09 04:25 | 53.13530 | 5.89966 | 19181 ft | 254 kts | 242° |
| 2026-05-09 04:26 | 53.12660 | 5.87392 | 19180 ft | 255 kts | 242° |
| 2026-05-09 04:26 | 53.11778 | 5.84819 | 19176 ft | 257 kts | 239° |
| 2026-05-09 04:26 | 53.10341 | 5.83034 | 19180 ft | 271 kts | 206° |
| 2026-05-09 04:26 | 53.08419 | 5.82945 | 19172 ft | 294 kts | 175° |
| 2026-05-09 04:27 | 53.06584 | 5.84698 | 19170 ft | 320 kts | 144° |
| 2026-05-09 04:27 | 53.05422 | 5.87894 | 19170 ft | 339 kts | 113° |
| 2026-05-09 04:27 | 53.05268 | 5.91877 | 19170 ft | 350 kts | 82° |
| 2026-05-09 04:27 | 53.06214 | 5.95554 | 19174 ft | 349 kts | 52° |
| 2026-05-09 04:28 | 53.07676 | 5.98740 | 19181 ft | 349 kts | 49° |
| 2026-05-09 04:28 | 53.09133 | 6.01949 | 19181 ft | 350 kts | 51° |
| 2026-05-09 04:28 | 53.10509 | 6.05306 | 19176 ft | 351 kts | 57° |
| 2026-05-09 04:28 | 53.11858 | 6.08646 | 19138 ft | 347 kts | 39° |
| 2026-05-09 04:29 | 53.13891 | 6.10521 | 19164 ft | 329 kts | 8° |
| 2026-05-09 04:29 | 53.16054 | 6.10579 | 19170 ft | 306 kts | 337° |
| 2026-05-09 04:29 | 53.17810 | 6.08935 | 19171 ft | 281 kts | 307° |
| 2026-05-09 04:29 | 53.18666 | 6.06198 | 19172 ft | 262 kts | 276° |
| 2026-05-09 04:30 | 53.18415 | 6.03284 | 19171 ft | 257 kts | 245° |
| 2026-05-09 04:30 | 53.17469 | 6.00781 | 19170 ft | 257 kts | 243° |
| 2026-05-09 04:30 | 53.16587 | 5.98163 | 19180 ft | 258 kts | 242° |
| 2026-05-09 04:30 | 53.15712 | 5.95580 | 19181 ft | 258 kts | 242° |
| 2026-05-09 04:31 | 53.14833 | 5.92983 | 19180 ft | 258 kts | 242° |
| 2026-05-09 04:31 | 53.13945 | 5.90362 | 19180 ft | 259 kts | 242° |
| 2026-05-09 04:31 | 53.13059 | 5.87751 | 19180 ft | 259 kts | 242° |
| 2026-05-09 04:31 | 53.11934 | 5.85467 | 19148 ft | 267 kts | 218° |
| 2026-05-09 04:32 | 53.10094 | 5.84653 | 19165 ft | 287 kts | 187° |
| 2026-05-09 04:32 | 53.08146 | 5.85681 | 19169 ft | 311 kts | 156° |
| 2026-05-09 04:32 | 53.06644 | 5.88397 | 19169 ft | 333 kts | 126° |
| 2026-05-09 04:32 | 53.06049 | 5.92174 | 19170 ft | 348 kts | 95° |
| 2026-05-09 04:33 | 53.06560 | 5.96097 | 19170 ft | 351 kts | 64° |
| 2026-05-09 04:33 | 53.07913 | 5.99372 | 19195 ft | 349 kts | 50° |
| 2026-05-09 04:33 | 53.09381 | 6.02586 | 19182 ft | 350 kts | 51° |
| 2026-05-09 04:33 | 53.10735 | 6.05959 | 19169 ft | 352 kts | 59° |
| 2026-05-09 04:34 | 53.12215 | 6.09103 | 19161 ft | 344 kts | 32° |
| 2026-05-09 04:34 | 53.14339 | 6.10638 | 19171 ft | 325 kts | 1° |
| 2026-05-09 04:34 | 53.16463 | 6.10323 | 19172 ft | 301 kts | 331° |
| 2026-05-09 04:34 | 53.18070 | 6.08383 | 19172 ft | 276 kts | 300° |
| 2026-05-09 04:35 | 53.18704 | 6.05516 | 19172 ft | 260 kts | 269° |
| 2026-05-09 04:35 | 53.18228 | 6.02700 | 19172 ft | 258 kts | 239° |
| 2026-05-09 04:35 | 53.17289 | 6.00185 | 19184 ft | 257 kts | 242° |
| 2026-05-09 04:35 | 53.16406 | 5.97587 | 19183 ft | 258 kts | 242° |
| 2026-05-09 04:36 | 53.15531 | 5.95003 | 19181 ft | 258 kts | 242° |
| 2026-05-09 04:36 | 53.14639 | 5.92368 | 19180 ft | 259 kts | 242° |
| 2026-05-09 04:36 | 53.13763 | 5.89786 | 19180 ft | 259 kts | 242° |
| 2026-05-09 04:36 | 53.12880 | 5.87183 | 19180 ft | 259 kts | 242° |
| 2026-05-09 04:37 | 53.11584 | 5.85100 | 19173 ft | 270 kts | 211° |
| 2026-05-09 04:37 | 53.09684 | 5.84652 | 19171 ft | 291 kts | 181° |
| 2026-05-09 04:37 | 53.07793 | 5.86033 | 19170 ft | 316 kts | 150° |
| 2026-05-09 04:37 | 53.06435 | 5.89029 | 19170 ft | 337 kts | 120° |
| 2026-05-09 04:38 | 53.06052 | 5.92934 | 19170 ft | 349 kts | 89° |
| 2026-05-09 04:38 | 53.06771 | 5.96732 | 19170 ft | 351 kts | 58° |
| 2026-05-09 04:38 | 53.08207 | 5.99989 | 19182 ft | 349 kts | 50° |
| 2026-05-09 04:38 | 53.09670 | 6.03237 | 19180 ft | 350 kts | 51° |
| 2026-05-09 04:39 | 53.10957 | 6.06641 | 19174 ft | 352 kts | 59° |
| 2026-05-09 04:39 | 53.12594 | 6.09535 | 19183 ft | 340 kts | 26° |
| 2026-05-09 04:39 | 53.14745 | 6.10720 | 19175 ft | 321 kts | 356° |
| 2026-05-09 04:39 | 53.16822 | 6.10074 | 19173 ft | 296 kts | 325° |
| 2026-05-09 04:40 | 53.18273 | 6.07899 | 19172 ft | 272 kts | 294° |
| 2026-05-09 04:40 | 53.18703 | 6.04969 | 19172 ft | 258 kts | 264° |
| 2026-05-09 04:40 | 53.18044 | 6.02259 | 19184 ft | 258 kts | 236° |
| 2026-05-09 04:40 | 53.17123 | 5.99691 | 19193 ft | 257 kts | 241° |
| 2026-05-09 04:41 | 53.16248 | 5.97110 | 19183 ft | 258 kts | 242° |
| 2026-05-09 04:41 | 53.15362 | 5.94494 | 19181 ft | 258 kts | 242° |
| 2026-05-09 04:41 | 53.14476 | 5.91879 | 19180 ft | 258 kts | 242° |
| 2026-05-09 04:41 | 53.13594 | 5.89280 | 19180 ft | 259 kts | 242° |
| 2026-05-09 04:42 | 53.12697 | 5.86675 | 19176 ft | 259 kts | 239° |
| 2026-05-09 04:42 | 53.11241 | 5.84881 | 19178 ft | 273 kts | 206° |
| 2026-05-09 04:42 | 53.09297 | 5.84795 | 19171 ft | 296 kts | 175° |
| 2026-05-09 04:42 | 53.07476 | 5.86522 | 19170 ft | 320 kts | 144° |
| 2026-05-09 04:43 | 53.06289 | 5.89746 | 19169 ft | 340 kts | 114° |
| 2026-05-09 04:43 | 53.06121 | 5.93699 | 19170 ft | 350 kts | 83° |
| 2026-05-09 04:43 | 53.07056 | 5.97419 | 19173 ft | 349 kts | 52° |
| 2026-05-09 04:43 | 53.08512 | 6.00631 | 19181 ft | 349 kts | 50° |
| 2026-05-09 04:44 | 53.09953 | 6.03898 | 19180 ft | 350 kts | 52° |
| 2026-05-09 04:44 | 53.11201 | 6.07321 | 19173 ft | 351 kts | 55° |
| 2026-05-09 04:44 | 53.12991 | 6.09910 | 19179 ft | 337 kts | 21° |
| 2026-05-09 04:44 | 53.15207 | 6.10735 | 19172 ft | 316 kts | 350° |
| 2026-05-09 04:45 | 53.17171 | 6.09747 | 19171 ft | 291 kts | 319° |
| 2026-05-09 04:45 | 53.18495 | 6.07377 | 18842 ft | 272 kts | 290° |
| 2026-05-09 04:45 | 53.18775 | 6.04400 | 18449 ft | 258 kts | 259° |
| 2026-05-09 04:45 | 53.18002 | 6.01762 | 18082 ft | 255 kts | 236° |
| 2026-05-09 04:46 | 53.17110 | 5.99263 | 17707 ft | 254 kts | 240° |
| 2026-05-09 04:46 | 53.16211 | 5.96741 | 17328 ft | 254 kts | 240° |
| 2026-05-09 04:46 | 53.15297 | 5.94211 | 16947 ft | 254 kts | 240° |
| 2026-05-09 04:46 | 53.14384 | 5.91719 | 16571 ft | 254 kts | 239° |
| 2026-05-09 04:47 | 53.13464 | 5.89236 | 16195 ft | 254 kts | 239° |
| 2026-05-09 04:47 | 53.12494 | 5.86766 | 15796 ft | 254 kts | 232° |
| 2026-05-09 04:47 | 53.10964 | 5.85367 | 15393 ft | 265 kts | 197° |
| 2026-05-09 04:47 | 53.09103 | 5.85733 | 14996 ft | 282 kts | 163° |
| 2026-05-09 04:48 | 53.07566 | 5.87865 | 14602 ft | 299 kts | 130° |
| 2026-05-09 04:48 | 53.06890 | 5.91145 | 14275 ft | 310 kts | 97° |
| 2026-05-09 04:48 | 53.07293 | 5.94625 | 13914 ft | 312 kts | 64° |
| 2026-05-09 04:48 | 53.08351 | 5.97765 | 13610 ft | 310 kts | 65° |
| 2026-05-09 04:49 | 53.09271 | 6.00977 | 13225 ft | 308 kts | 65° |
| 2026-05-09 04:49 | 53.10183 | 6.04203 | 12852 ft | 307 kts | 65° |
| 2026-05-09 04:49 | 53.11217 | 6.07282 | 12483 ft | 305 kts | 47° |
| 2026-05-09 04:49 | 53.12950 | 6.09078 | 12146 ft | 295 kts | 13° |
| 2026-05-09 04:50 | 53.14924 | 6.09104 | 11815 ft | 282 kts | 340° |
| 2026-05-09 04:50 | 53.16527 | 6.07446 | 11419 ft | 269 kts | 307° |
| 2026-05-09 04:50 | 53.17231 | 6.04711 | 11039 ft | 257 kts | 272° |
| 2026-05-09 04:50 | 53.16815 | 6.01881 | 10756 ft | 251 kts | 238° |
| 2026-05-09 04:51 | 53.15761 | 5.99610 | 10559 ft | 248 kts | 231° |
| 2026-05-09 04:51 | 53.14682 | 5.97400 | 10271 ft | 248 kts | 229° |
| 2026-05-09 04:51 | 53.13581 | 5.95202 | 9987 ft | 247 kts | 229° |
| 2026-05-09 04:51 | 53.12465 | 5.93027 | 9612 ft | 248 kts | 228° |
| 2026-05-09 04:52 | 53.11317 | 5.90852 | 9277 ft | 249 kts | 227° |
| 2026-05-09 04:52 | 53.10182 | 5.88741 | 8983 ft | 248 kts | 226° |
| 2026-05-09 04:52 | 53.08738 | 5.87269 | 8577 ft | 247 kts | 192° |
| 2026-05-09 04:52 | 53.07067 | 5.87640 | 8190 ft | 251 kts | 157° |
| 2026-05-09 04:53 | 53.05829 | 5.89662 | 7797 ft | 259 kts | 121° |
| 2026-05-09 04:53 | 53.05526 | 5.92592 | 7416 ft | 267 kts | 86° |
| 2026-05-09 04:53 | 53.06310 | 5.95431 | 7067 ft | 274 kts | 54° |
| 2026-05-09 04:53 | 53.07347 | 5.98038 | 6821 ft | 270 kts | 58° |
| 2026-05-09 04:54 | 53.08368 | 6.00613 | 6504 ft | 269 kts | 58° |
| 2026-05-09 04:54 | 53.09430 | 6.03162 | 6159 ft | 268 kts | 57° |
| 2026-05-09 04:54 | 53.10564 | 6.05589 | 5778 ft | 268 kts | 49° |
| 2026-05-09 04:54 | 53.12221 | 6.06998 | 5406 ft | 272 kts | 11° |
| 2026-05-09 04:55 | 53.14055 | 6.06568 | 5030 ft | 273 kts | 334° |
| 2026-05-09 04:55 | 53.15420 | 6.04490 | 4694 ft | 268 kts | 300° |
| 2026-05-09 04:55 | 53.15841 | 6.01535 | 4297 ft | 262 kts | 264° |
| 2026-05-09 04:55 | 53.15181 | 5.98816 | 3902 ft | 255 kts | 229° |
| 2026-05-09 04:56 | 53.13987 | 5.96654 | 3543 ft | 253 kts | 225° |
| 2026-05-09 04:56 | 53.12797 | 5.94535 | 3162 ft | 247 kts | 225° |
| 2026-05-09 04:56 | 53.11657 | 5.92476 | 2786 ft | 243 kts | 225° |
| 2026-05-09 04:56 | 53.10358 | 5.90749 | 2355 ft | 237 kts | 197° |
| 2026-05-09 04:57 | 53.08799 | 5.90828 | 2046 ft | 225 kts | 156° |
| 2026-05-09 04:57 | 53.07744 | 5.92561 | 1989 ft | 206 kts | 112° |
| 2026-05-09 04:57 | 53.07732 | 5.94789 | 1994 ft | 190 kts | 73° |
| 2026-05-09 04:57 | 53.08115 | 5.96813 | 1996 ft | 181 kts | 73° |
| 2026-05-09 04:58 | 53.08504 | 5.98835 | 2001 ft | 184 kts | 73° |
| 2026-05-09 04:58 | 53.08892 | 6.00875 | 2001 ft | 187 kts | 76° |
| 2026-05-09 04:58 | 53.08993 | 6.03045 | 2002 ft | 188 kts | 93° |
| 2026-05-09 04:58 | 53.08839 | 6.05213 | 2001 ft | 190 kts | 99° |
| 2026-05-09 04:59 | 53.08596 | 6.07384 | 2001 ft | 192 kts | 102° |
| 2026-05-09 04:59 | 53.08321 | 6.09570 | 2000 ft | 191 kts | 102° |
| 2026-05-09 04:59 | 53.08043 | 6.11706 | 1991 ft | 182 kts | 102° |
| 2026-05-09 04:59 | 53.07780 | 6.13708 | 1990 ft | 173 kts | 102° |
| 2026-05-09 05:00 | 53.07526 | 6.15623 | 1990 ft | 166 kts | 102° |
| 2026-05-09 05:00 | 53.07282 | 6.17467 | 1991 ft | 159 kts | 102° |
| 2026-05-09 05:00 | 53.07047 | 6.19239 | 1994 ft | 154 kts | 103° |
| 2026-05-09 05:00 | 53.06820 | 6.20945 | 2113 ft | 146 kts | 102° |
| 2026-05-09 05:01 | 53.06594 | 6.22644 | 2015 ft | 151 kts | 103° |
| 2026-05-09 05:01 | 53.06367 | 6.24350 | 2001 ft | 151 kts | 102° |
| 2026-05-09 05:01 | 53.06138 | 6.26067 | 2001 ft | 150 kts | 102° |
| 2026-05-09 05:01 | 53.05656 | 6.27555 | 1990 ft | 149 kts | 135° |
| 2026-05-09 05:02 | 53.04886 | 6.28703 | 1998 ft | 149 kts | 138° |
| 2026-05-09 05:02 | 53.04089 | 6.29795 | 1998 ft | 149 kts | 139° |
| 2026-05-09 05:02 | 53.03276 | 6.30877 | 1998 ft | 148 kts | 140° |
| 2026-05-09 05:02 | 53.02471 | 6.31935 | 1998 ft | 148 kts | 140° |
| 2026-05-09 05:03 | 53.01683 | 6.33030 | 1988 ft | 148 kts | 130° |
| 2026-05-09 05:03 | 53.01434 | 6.34642 | 1986 ft | 148 kts | 83° |
| 2026-05-09 05:03 | 53.01857 | 6.36200 | 2001 ft | 149 kts | 61° |
| 2026-05-09 05:03 | 53.02433 | 6.37638 | 1999 ft | 150 kts | 56° |
| 2026-05-09 05:04 | 53.03060 | 6.39041 | 1998 ft | 150 kts | 54° |
| 2026-05-09 05:04 | 53.03665 | 6.40347 | 2012 ft | 139 kts | 54° |
| 2026-05-09 05:04 | 53.04240 | 6.41582 | 1993 ft | 132 kts | 54° |
| 2026-05-09 05:04 | 53.04798 | 6.42772 | 1963 ft | 128 kts | 54° |
| 2026-05-09 05:05 | 53.05342 | 6.43958 | 1807 ft | 129 kts | 54° |
| 2026-05-09 05:05 | 53.05893 | 6.45157 | 1651 ft | 130 kts | 54° |
| 2026-05-09 05:05 | 53.06444 | 6.46355 | 1484 ft | 128 kts | 54° |
| 2026-05-09 05:05 | 53.06984 | 6.47519 | 1319 ft | 126 kts | 52° |
| 2026-05-09 05:06 | 53.07524 | 6.48643 | 1154 ft | 122 kts | 52° |
| 2026-05-09 05:06 | 53.08045 | 6.49725 | 992 ft | 117 kts | 52° |
| 2026-05-09 05:06 | 53.08552 | 6.50778 | 836 ft | 114 kts | 52° |
| 2026-05-09 05:06 | 53.09041 | 6.51793 | 689 ft | 113 kts | 52° |
| 2026-05-09 05:07 | 53.09536 | 6.52821 | 542 ft | 114 kts | 52° |
| 2026-05-09 05:07 | 53.10039 | 6.53867 | 394 ft | 117 kts | 52° |
| 2026-05-09 05:07 | 53.10545 | 6.54901 | 252 ft | 112 kts | 51° |
| 2026-05-09 05:07 | 53.11015 | 6.55885 | 102 ft | 108 kts | 52° |
| 2026-05-09 05:08 | 53.11474 | 6.56860 | 13 ft | 101 kts | 52° |
| 2026-05-09 05:08 | 53.11823 | 6.57608 | 16 ft | 44 kts | 51° |
| 2026-05-09 05:08 | 53.11967 | 6.57736 | 16 ft | 27 kts | 4° |
| 2026-05-09 05:08 | 53.12047 | 6.57757 | 16 ft | 0 kts | 8° |
| 2026-05-09 05:09 | 53.12061 | 6.57761 | 16 ft | 9 kts | 9° |
| 2026-05-09 05:09 | 53.12183 | 6.57795 | 16 ft | 25 kts | 8° |
| 2026-05-09 05:09 | 53.12355 | 6.57839 | 16 ft | 25 kts | 7° |
| 2026-05-09 05:09 | 53.12461 | 6.57993 | 13 ft | 20 kts | 50° |
| 2026-05-09 05:10 | 53.12563 | 6.58211 | 9 ft | 23 kts | 51° |
| 2026-05-09 05:10 | 53.12637 | 6.58357 | 9 ft | 9 kts | 30° |
| 2026-05-09 05:10 | 53.12703 | 6.58341 | 9 ft | 6 kts | 5° |
| 2026-05-09 05:10 | 53.12707 | 6.58341 | 9 ft | 0 kts | 5° |